createdAt,value
2022-10-08T12:47:45.519Z,101750.50
2022-10-08T12:50:25.651Z,101739.97
2022-10-08T12:52:53.559Z,101751.25
2022-10-08T12:55:22.464Z,101772.25
2022-10-08T12:57:50.904Z,101784.69
2022-10-08T13:00:22.289Z,101764.63
2022-10-08T13:03:01.557Z,101759.38
2022-10-08T13:05:30.893Z,101768.16
2022-10-08T13:07:58.854Z,101773.34
2022-10-08T13:10:28.280Z,101769.81
2022-10-08T13:13:06.416Z,101771.56
2022-10-08T13:15:35.145Z,101774.13
2022-10-08T13:18:15.242Z,101782.81
2022-10-08T13:20:56.733Z,101777.53
2022-10-08T13:23:32.574Z,101774.00
2022-10-08T13:26:01.164Z,101777.56
2022-10-08T13:28:58.610Z,101776.75
2022-10-08T13:31:23.011Z,101773.22
2022-10-08T13:33:52.286Z,101784.44
2022-10-08T13:36:21.754Z,101786.16
2022-10-08T13:38:49.701Z,101787.81
2022-10-08T13:41:23.557Z,101782.41
2022-10-08T13:43:51.692Z,101792.88
2022-10-08T13:46:19.654Z,101802.34
2022-10-08T13:48:47.638Z,101799.59
2022-10-08T13:51:16.928Z,101802.81
2022-10-08T13:53:45.798Z,101821.72
2022-10-08T13:56:13.839Z,101810.00
2022-10-08T13:58:41.725Z,101815.75
2022-10-08T14:01:09.693Z,101803.13
2022-10-08T14:03:37.711Z,101806.38
2022-10-08T14:06:05.777Z,101808.84
2022-10-08T14:08:36.082Z,101811.56
2022-10-08T14:11:04.088Z,101815.31
2022-10-08T14:13:31.951Z,101818.56
2022-10-08T14:15:59.843Z,101825.13
2022-10-08T14:18:27.849Z,101834.16
2022-10-08T14:20:55.743Z,101833.44
2022-10-08T14:23:23.627Z,101833.50
2022-10-08T14:25:53.977Z,101838.72
2022-10-08T14:28:21.894Z,101843.78
2022-10-08T14:30:49.853Z,101850.41
2022-10-08T14:33:17.770Z,101858.19
2022-10-08T14:35:45.664Z,101849.34
2022-10-08T14:38:13.566Z,101860.03
2022-10-08T14:40:41.456Z,101855.72
2022-10-08T14:43:10.727Z,101856.69
2022-10-08T14:45:38.804Z,101851.66
2022-10-08T14:48:07.191Z,101864.09
2022-10-08T14:50:35.092Z,101870.34
2022-10-08T14:53:02.983Z,101865.16
2022-10-08T14:55:30.900Z,101874.00
2022-10-08T14:57:58.793Z,101877.56
2022-10-08T15:00:28.047Z,101874.94
2022-10-08T15:02:55.999Z,101880.19
2022-10-08T15:05:23.856Z,101877.59
2022-10-08T15:07:51.951Z,101884.41
2022-10-08T15:10:19.902Z,101883.25
2022-10-08T15:12:48.038Z,101887.41
2022-10-08T15:15:18.569Z,101894.28
2022-10-08T15:17:47.951Z,101890.63
2022-10-08T15:20:16.312Z,101896.66
2022-10-08T15:22:44.205Z,101893.34
2022-10-08T15:25:12.085Z,101901.25
2022-10-08T15:27:39.977Z,101898.75
2022-10-08T15:30:08.987Z,101903.25
2022-10-08T15:32:39.183Z,101910.41
2022-10-08T15:35:09.109Z,101926.38
2022-10-08T15:37:37.043Z,101933.53
2022-10-08T15:40:05.500Z,101943.28
2022-10-08T15:42:33.386Z,101929.34
2022-10-08T15:45:01.287Z,101932.00
2022-10-08T15:47:29.182Z,101937.28
2022-10-08T15:49:57.055Z,101942.56
2022-10-08T15:52:26.568Z,101953.13
2022-10-08T15:54:54.469Z,101964.53
2022-10-08T15:57:22.532Z,101961.09
2022-10-08T15:59:50.436Z,101960.25
2022-10-08T16:02:18.799Z,101971.63
2022-10-08T16:04:47.521Z,101976.94
2022-10-08T16:07:15.585Z,101982.25
2022-10-08T16:09:44.829Z,101992.88
2022-10-08T16:12:12.739Z,101982.41
2022-10-08T16:14:40.661Z,101992.97
2022-10-08T16:17:09.097Z,101995.66
2022-10-08T16:19:37.044Z,102000.09
2022-10-08T16:22:05.459Z,102003.63
2022-10-08T16:24:33.347Z,102008.03
2022-10-08T16:27:02.618Z,102008.06
2022-10-08T16:29:30.678Z,102010.72
2022-10-08T16:31:58.655Z,102011.63
2022-10-08T16:34:27.122Z,102022.19
2022-10-08T16:36:54.999Z,102018.69
2022-10-08T16:39:24.373Z,102025.75
2022-10-08T16:41:52.356Z,102032.75
2022-10-08T16:44:21.765Z,102028.44
2022-10-08T16:46:51.042Z,102030.19
2022-10-08T16:49:24.189Z,102037.22
2022-10-08T16:51:53.277Z,102033.72
2022-10-08T16:54:21.178Z,102046.88
2022-10-08T16:56:49.516Z,102035.53
2022-10-08T16:59:19.089Z,102051.28
2022-10-08T17:01:49.684Z,102049.56
2022-10-08T17:04:17.965Z,102059.22
2022-10-08T17:06:45.916Z,102070.56
2022-10-08T17:09:14.008Z,102090.75
2022-10-08T17:11:42.291Z,102079.34
2022-10-08T17:14:11.636Z,102086.38
2022-10-08T17:16:39.647Z,102084.66
2022-10-08T17:19:09.036Z,102082.03
2022-10-08T17:21:37.092Z,102083.75
2022-10-08T17:24:05.201Z,102078.56
2022-10-08T17:26:33.122Z,102089.06
2022-10-08T17:29:03.521Z,102082.06
2022-10-08T17:31:31.784Z,102089.03
2022-10-08T17:34:00.089Z,102093.41
2022-10-08T17:36:30.029Z,102094.28
2022-10-08T17:38:58.999Z,102094.28
2022-10-08T17:41:27.545Z,102099.53
2022-10-08T17:43:56.763Z,102109.19
2022-10-08T17:46:25.543Z,102108.34
2022-10-08T17:48:53.661Z,102110.97
2022-10-08T17:51:22.215Z,102111.88
2022-10-08T17:53:54.227Z,102111.88
2022-10-08T17:56:22.168Z,102117.13
2022-10-08T17:58:50.069Z,102124.09
2022-10-08T18:01:18.851Z,102123.25
2022-10-08T18:03:51.051Z,102123.25
2022-10-08T18:06:19.414Z,102132.03
2022-10-08T18:08:47.329Z,102134.66
2022-10-08T18:11:17.906Z,102140.75
2022-10-08T18:13:45.876Z,102146.00
2022-10-08T18:16:15.246Z,102150.41
2022-10-08T18:18:43.403Z,102144.28
2022-10-08T18:21:11.644Z,102147.78
2022-10-08T18:23:41.887Z,102152.16
2022-10-08T18:26:11.055Z,102160.03
2022-10-08T18:28:40.354Z,102167.03
2022-10-08T18:31:08.947Z,102172.28
2022-10-08T18:33:37.804Z,102170.53
2022-10-08T18:36:10.288Z,102172.31
2022-10-08T18:38:38.262Z,102173.16
2022-10-08T18:41:16.009Z,102177.56
2022-10-08T18:43:45.416Z,102177.56
2022-10-08T18:46:13.493Z,102188.03
2022-10-08T18:48:41.570Z,102179.28
2022-10-08T18:51:10.291Z,102181.06
2022-10-08T18:53:39.000Z,102192.41
2022-10-08T18:56:08.484Z,102189.78
2022-10-08T18:58:37.518Z,102196.81
2022-10-08T19:01:07.123Z,102200.31
2022-10-08T19:03:35.103Z,102195.91
2022-10-08T19:10:58.847Z,102201.19
2022-10-08T19:13:26.721Z,102212.53
2022-10-08T19:15:54.697Z,102219.56
2022-10-08T19:18:24.011Z,102219.56
2022-10-08T19:20:51.891Z,102218.66
2022-10-08T19:23:19.771Z,102208.16
2022-10-08T19:25:47.656Z,102218.69
2022-10-08T19:28:15.635Z,102224.78
2022-10-08T19:30:43.603Z,102226.56
2022-10-08T19:33:11.549Z,102223.94
2022-10-08T19:35:41.827Z,102227.44
2022-10-08T19:38:09.732Z,102236.19
2022-10-08T19:40:37.610Z,102237.03
2022-10-08T19:43:05.519Z,102237.03
2022-10-08T19:45:35.367Z,102244.91
2022-10-08T19:48:03.278Z,102245.78
2022-10-08T19:50:31.160Z,102244.06
2022-10-08T19:53:00.517Z,102251.91
2022-10-08T19:55:28.581Z,102250.19
2022-10-08T19:57:56.466Z,102258.03
2022-10-08T20:00:24.374Z,102258.03
2022-10-08T20:02:52.457Z,102264.16
2022-10-08T20:05:20.477Z,102257.16
2022-10-08T20:07:48.386Z,102266.78
2022-10-08T20:10:17.837Z,102263.31
2022-10-08T20:12:45.987Z,102272.03
2022-10-08T20:15:14.224Z,102272.03
2022-10-08T20:17:42.131Z,102277.28
2022-10-08T20:20:31.899Z,102273.78
2022-10-08T20:22:58.760Z,102284.28
2022-10-08T20:25:28.042Z,102282.50
2022-10-08T20:27:55.972Z,102282.53
2022-10-08T20:30:23.926Z,102291.25
2022-10-08T20:32:51.840Z,102281.66
2022-10-08T20:35:19.783Z,102291.25
2022-10-08T20:37:47.657Z,102293.91
